Time;durP1;ratioP1;P1;durP2;ratioP2;P2;SDS_P1;SDS_P2;PMS_P1;PMS_P2;Temp;Humidity;BMP_temperature;BMP_pressure;BME280_temperature;BME280_humidity;BME280_pressure;Samples;Min_cycle;Max_cycle;Signal;HPM_P1;HPM_P2
2022/07/24 00:00:24;;;;;;;5.78;1.50;;;22.80;51.80;;;;;;4962406;28;20050;-67
2022/07/24 00:02:50;;;;;;;4.00;2.00;;;22.70;52.00;;;;;;4957219;28;20518;-67
2022/07/24 00:05:16;;;;;;;3.38;1.92;;;22.60;52.30;;;;;;4956421;28;20038;-67
2022/07/24 00:07:43;;;;;;;4.57;2.00;;;22.60;52.40;;;;;;4962747;28;20070;-67
2022/07/24 00:10:10;;;;;;;4.82;2.28;;;22.50;52.50;;;;;;4969146;28;20410;-67
2022/07/24 00:12:37;;;;;;;3.83;1.88;;;22.40;52.50;;;;;;4962185;28;20506;-67
2022/07/24 00:15:03;;;;;;;5.28;1.80;;;22.40;52.70;;;;;;4966263;28;20035;-67
2022/07/24 00:17:29;;;;;;;4.90;2.03;;;22.30;52.80;;;;;;4958743;28;20113;-67
2022/07/24 00:19:55;;;;;;;4.03;1.70;;;22.30;53.00;;;;;;4966969;28;20109;-67
2022/07/24 00:22:20;;;;;;;4.85;1.63;;;22.20;53.20;;;;;;4968452;28;20380;-67
2022/07/24 00:24:46;;;;;;;3.40;1.60;;;22.20;53.60;;;;;;4959480;28;20043;-67
2022/07/24 00:27:12;;;;;;;5.75;1.60;;;22.10;53.80;;;;;;4960610;28;20716;-68
2022/07/24 00:29:37;;;;;;;4.60;1.70;;;22.10;54.00;;;;;;4967986;28;20039;-67
2022/07/24 00:32:03;;;;;;;3.90;1.50;;;22.10;54.20;;;;;;4967482;28;20030;-67
2022/07/24 00:34:29;;;;;;;3.85;1.60;;;22.00;54.40;;;;;;4956040;28;20031;-67
2022/07/24 00:36:55;;;;;;;4.22;1.65;;;22.00;54.70;;;;;;4966302;28;20080;-67
2022/07/24 00:39:21;;;;;;;3.78;1.50;;;22.00;54.80;;;;;;4967269;28;20432;-67
2022/07/24 00:41:46;;;;;;;3.70;1.60;;;21.90;54.90;;;;;;4969121;28;20406;-67
2022/07/24 00:44:14;;;;;;;3.25;1.60;;;21.90;55.00;;;;;;4966449;28;20043;-67
2022/07/24 00:46:43;;;;;;;4.18;1.80;;;21.90;55.30;;;;;;4964735;28;20027;-67
2022/07/24 00:49:12;;;;;;;5.43;1.75;;;21.80;55.30;;;;;;4969397;28;20031;-67
2022/07/24 00:51:41;;;;;;;4.00;1.65;;;21.80;55.20;;;;;;4970561;28;20042;-67
2022/07/24 00:54:08;;;;;;;8.45;1.90;;;21.80;55.20;;;;;;4963380;28;20498;-67
2022/07/24 00:56:34;;;;;;;3.38;1.60;;;21.70;55.20;;;;;;4969995;28;20066;-67
2022/07/24 00:59:00;;;;;;;5.07;1.85;;;21.70;55.30;;;;;;4970487;28;20077;-67
2022/07/24 01:01:26;;;;;;;3.58;1.73;;;21.70;55.50;;;;;;4970074;28;20097;-67
2022/07/24 01:03:52;;;;;;;4.35;1.83;;;21.60;55.50;;;;;;4960867;28;20487;-67
2022/07/24 01:06:19;;;;;;;3.10;1.95;;;21.50;55.80;;;;;;4960397;28;20094;-67
2022/07/24 01:08:46;;;;;;;5.15;1.90;;;21.40;55.90;;;;;;4967224;28;20030;-67
2022/07/24 01:11:12;;;;;;;4.07;1.95;;;21.40;56.20;;;;;;4956057;28;20564;-67
2022/07/24 01:13:39;;;;;;;6.63;1.90;;;21.30;56.40;;;;;;4971571;28;20030;-67
2022/07/24 01:16:06;;;;;;;3.95;2.00;;;21.30;56.60;;;;;;4968064;28;20474;-67
2022/07/24 01:18:31;;;;;;;5.63;1.90;;;21.30;56.80;;;;;;4963702;28;20059;-67
2022/07/24 01:20:57;;;;;;;4.32;2.00;;;21.30;56.70;;;;;;4967372;28;20058;-67
2022/07/24 01:23:23;;;;;;;5.07;2.00;;;21.20;56.60;;;;;;4962714;28;20031;-67
2022/07/24 01:25:49;;;;;;;6.22;2.00;;;21.20;56.60;;;;;;4963664;28;20478;-67
2022/07/24 01:28:15;;;;;;;4.55;2.10;;;21.20;56.60;;;;;;4959860;28;20035;-67
2022/07/24 01:30:41;;;;;;;4.30;2.20;;;21.20;56.60;;;;;;4967609;28;20035;-67
2022/07/24 01:33:07;;;;;;;3.90;1.90;;;21.20;56.60;;;;;;4968214;28;20102;-67
2022/07/24 01:35:33;;;;;;;3.85;2.00;;;21.10;56.80;;;;;;4966580;28;20030;-67
2022/07/24 01:37:58;;;;;;;8.48;2.05;;;21.10;57.10;;;;;;4958296;28;20034;-67
2022/07/24 01:40:24;;;;;;;4.82;1.95;;;21.00;57.20;;;;;;4968380;28;20053;-67
2022/07/24 01:42:50;;;;;;;6.00;2.20;;;21.00;57.30;;;;;;4963190;28;20439;-67
2022/07/24 01:45:16;;;;;;;5.72;2.00;;;21.00;57.50;;;;;;4966860;28;20645;-67
2022/07/24 01:47:43;;;;;;;4.18;2.00;;;21.00;57.60;;;;;;4969232;28;20460;-67
2022/07/24 01:50:10;;;;;;;3.63;1.77;;;20.90;57.70;;;;;;4959802;28;20041;-67
2022/07/24 01:52:36;;;;;;;2.90;1.60;;;20.80;58.50;;;;;;4965149;28;20109;-68
2022/07/24 01:55:03;;;;;;;4.40;1.80;;;20.80;57.50;;;;;;4959452;28;20051;-67
2022/07/24 01:57:29;;;;;;;6.40;1.80;;;20.70;57.60;;;;;;4965912;28;20031;-67
2022/07/24 01:59:55;;;;;;;6.70;2.10;;;20.70;57.50;;;;;;4967426;28;20112;-67
2022/07/24 02:02:20;;;;;;;3.88;2.17;;;20.60;57.50;;;;;;4966487;28;20022;-67
2022/07/24 02:04:46;;;;;;;4.35;2.00;;;20.70;57.70;;;;;;4954692;28;20061;-67
2022/07/24 02:07:12;;;;;;;4.00;2.08;;;20.70;57.80;;;;;;4969270;28;20019;-67
2022/07/24 02:09:38;;;;;;;4.93;2.10;;;20.60;57.80;;;;;;4966472;28;20066;-67
2022/07/24 02:12:04;;;;;;;3.80;2.03;;;20.60;57.90;;;;;;4969006;28;20684;-67
2022/07/24 02:14:29;;;;;;;3.30;1.70;;;20.60;58.10;;;;;;4964879;28;20133;-67
2022/07/24 02:16:55;;;;;;;4.28;1.80;;;20.50;58.00;;;;;;4965291;28;20031;-67
2022/07/24 02:19:23;;;;;;;6.03;1.90;;;20.50;58.10;;;;;;4961173;28;20558;-67
2022/07/24 02:21:48;;;;;;;4.82;1.70;;;20.40;58.20;;;;;;4961574;28;20106;-67
2022/07/24 02:24:14;;;;;;;4.47;2.03;;;20.40;58.40;;;;;;4959063;28;20575;-67
2022/07/24 02:26:40;;;;;;;3.65;1.83;;;20.40;58.60;;;;;;4958276;28;20027;-67
2022/07/24 02:29:05;;;;;;;4.00;2.30;;;20.30;58.80;;;;;;4953609;28;20125;-67
2022/07/24 02:31:31;;;;;;;4.85;1.90;;;20.30;59.00;;;;;;4958234;28;20039;-67
2022/07/24 02:33:57;;;;;;;5.47;1.90;;;20.30;59.20;;;;;;4964752;28;20033;-67
2022/07/24 02:36:22;;;;;;;3.30;1.90;;;20.30;59.40;;;;;;4969048;28;20031;-67
2022/07/24 02:38:48;;;;;;;5.32;1.98;;;20.20;59.50;;;;;;4963065;28;20483;-67
2022/07/24 02:41:14;;;;;;;3.75;1.90;;;20.20;59.30;;;;;;4965958;28;20035;-67
2022/07/24 02:43:39;;;;;;;4.40;2.15;;;20.10;59.30;;;;;;4969430;28;20486;-67
2022/07/24 02:46:06;;;;;;;3.53;2.17;;;20.00;59.60;;;;;;4960792;28;20030;-67
2022/07/24 02:48:32;;;;;;;3.60;1.85;;;20.00;59.90;;;;;;4969422;28;20426;-67
2022/07/24 02:50:58;;;;;;;3.65;2.00;;;19.90;60.30;;;;;;4966805;28;20089;-67
2022/07/24 02:53:24;;;;;;;3.08;1.77;;;19.90;60.50;;;;;;4967649;28;20494;-67
2022/07/24 02:55:50;;;;;;;5.47;2.08;;;19.90;60.60;;;;;;4968701;28;20054;-67
2022/07/24 02:58:16;;;;;;;4.15;1.83;;;19.80;60.50;;;;;;4969246;28;20047;-67
2022/07/24 03:00:42;;;;;;;3.53;1.80;;;19.90;60.50;;;;;;4965912;28;20095;-67
2022/07/24 03:03:07;;;;;;;5.22;1.90;;;19.80;60.20;;;;;;4965254;28;20102;-67
2022/07/24 03:05:33;;;;;;;3.78;2.22;;;19.90;60.10;;;;;;4961114;28;20442;-67
2022/07/24 03:07:59;;;;;;;4.78;2.08;;;19.80;60.00;;;;;;4964942;28;20027;-67
2022/07/24 03:10:24;;;;;;;3.88;1.85;;;19.80;60.00;;;;;;4962517;28;20117;-67
2022/07/24 03:12:50;;;;;;;4.03;2.08;;;19.80;60.20;;;;;;4967953;28;20379;-67
2022/07/24 03:15:16;;;;;;;10.10;4.30;;;19.80;60.20;;;;;;4968360;28;20033;-67
2022/07/24 03:17:53;;;;;;;17.80;8.10;;;19.80;60.10;;;;;;4968204;28;20055;-67
2022/07/24 03:20:19;;;;;;;21.70;10.02;;;19.70;60.20;;;;;;4968149;28;20039;-67
2022/07/24 03:22:46;;;;;;;18.05;7.97;;;19.70;60.30;;;;;;4965393;28;20166;-67
2022/07/24 03:25:12;;;;;;;12.38;5.72;;;19.60;60.30;;;;;;4967971;28;20031;-67
2022/07/24 03:27:37;;;;;;;4.40;2.53;;;19.50;60.30;;;;;;4961818;28;20503;-67
2022/07/24 03:30:05;;;;;;;6.53;2.28;;;19.50;60.60;;;;;;4960504;28;20035;-67
2022/07/24 03:32:30;;;;;;;4.68;2.50;;;19.50;60.90;;;;;;4955638;28;20528;-67
2022/07/24 03:34:56;;;;;;;3.65;2.20;;;19.50;61.20;;;;;;4963609;28;20030;-67
2022/07/24 03:37:22;;;;;;;4.13;2.25;;;19.50;61.60;;;;;;4965191;28;20038;-67
2022/07/24 03:39:47;;;;;;;4.32;2.35;;;19.40;61.90;;;;;;4967633;28;20046;-66
2022/07/24 03:42:13;;;;;;;5.47;2.10;;;19.40;62.40;;;;;;4967907;28;20031;-67
2022/07/24 03:44:39;;;;;;;3.88;2.30;;;19.30;62.60;;;;;;4968255;28;20038;-67
2022/07/24 03:47:05;;;;;;;4.20;2.35;;;19.30;62.50;;;;;;4964299;28;20062;-67
2022/07/24 03:49:30;;;;;;;6.50;2.50;;;19.20;62.70;;;;;;4969386;28;20035;-67
2022/07/24 03:51:56;;;;;;;4.20;2.33;;;19.20;62.80;;;;;;4965745;28;20093;-67
2022/07/24 03:54:22;;;;;;;6.03;2.42;;;19.20;62.90;;;;;;4964696;28;20064;-67
2022/07/24 03:56:48;;;;;;;5.22;2.70;;;19.20;63.20;;;;;;4961838;28;20039;-66
2022/07/24 03:59:14;;;;;;;4.88;2.55;;;19.20;63.30;;;;;;4968844;28;20034;-67
2022/07/24 04:01:39;;;;;;;4.70;2.53;;;19.20;63.50;;;;;;4966786;28;20045;-66
2022/07/24 04:04:05;;;;;;;3.72;2.10;;;19.20;63.70;;;;;;4958297;28;20376;-67
2022/07/24 04:06:32;;;;;;;4.05;2.17;;;19.10;63.90;;;;;;4961545;28;20041;-66
2022/07/24 04:08:58;;;;;;;5.35;2.50;;;19.10;64.00;;;;;;4966587;28;20035;-67
2022/07/24 04:11:24;;;;;;;4.05;2.22;;;19.10;64.20;;;;;;4965806;28;20034;-66
2022/07/24 04:13:50;;;;;;;5.15;2.30;;;19.10;64.30;;;;;;4967990;28;20041;-67
2022/07/24 04:16:15;;;;;;;5.85;2.10;;;19.00;64.50;;;;;;4969358;28;20113;-67
2022/07/24 04:18:41;;;;;;;4.63;2.40;;;19.00;64.50;;;;;;4968044;28;20035;-67
2022/07/24 04:21:07;;;;;;;4.20;2.10;;;19.00;64.30;;;;;;4968384;28;20074;-67
2022/07/24 04:23:32;;;;;;;3.38;1.90;;;19.00;64.10;;;;;;4965128;28;20027;-67
2022/07/24 04:25:58;;;;;;;4.35;2.25;;;19.20;64.00;;;;;;4967195;28;20110;-67
2022/07/24 04:28:24;;;;;;;4.88;2.38;;;19.00;63.60;;;;;;4960536;28;20570;-67
2022/07/24 04:30:49;;;;;;;4.38;2.00;;;19.10;63.30;;;;;;4969498;28;20031;-66
2022/07/24 04:33:15;;;;;;;5.70;2.40;;;19.10;63.00;;;;;;4967347;28;20027;-67
2022/07/24 04:35:41;;;;;;;4.50;2.17;;;19.10;62.80;;;;;;4961407;28;20130;-67
2022/07/24 04:38:06;;;;;;;4.57;2.35;;;19.10;62.80;;;;;;4967555;28;20065;-67
2022/07/24 04:40:32;;;;;;;5.18;2.85;;;19.10;62.70;;;;;;4966574;28;20499;-67
2022/07/24 04:42:58;;;;;;;7.70;2.95;;;19.10;62.50;;;;;;4965541;28;20031;-67
2022/07/24 04:45:23;;;;;;;4.22;2.63;;;19.00;62.60;;;;;;4961189;28;20034;-67
2022/07/24 04:47:49;;;;;;;4.03;2.30;;;19.00;63.20;;;;;;4961256;28;20110;-67
2022/07/24 04:50:15;;;;;;;6.30;2.28;;;18.90;63.50;;;;;;4969608;28;20038;-67
2022/07/24 04:52:41;;;;;;;6.78;2.60;;;18.90;63.50;;;;;;4970542;28;20034;-68
2022/07/24 04:55:07;;;;;;;4.00;2.58;;;19.00;63.60;;;;;;4961036;28;20515;-67
2022/07/24 04:57:33;;;;;;;5.22;2.58;;;19.00;63.60;;;;;;4963052;28;20081;-67
2022/07/24 04:59:59;;;;;;;6.00;2.50;;;19.00;63.70;;;;;;4963331;28;20465;-67
2022/07/24 05:02:24;;;;;;;5.50;2.45;;;19.00;64.00;;;;;;4969770;28;20113;-67
2022/07/24 05:04:50;;;;;;;7.55;2.50;;;18.90;64.30;;;;;;4958664;28;20094;-67
2022/07/24 05:07:16;;;;;;;4.38;2.53;;;18.90;64.30;;;;;;4959422;28;20446;-67
2022/07/24 05:09:41;;;;;;;4.00;2.40;;;18.90;63.90;;;;;;4960286;28;20035;-67
2022/07/24 05:12:07;;;;;;;5.45;2.50;;;18.90;63.80;;;;;;4966394;28;20082;-67
2022/07/24 05:14:33;;;;;;;4.47;2.50;;;18.90;63.80;;;;;;4962653;28;20031;-67
2022/07/24 05:16:59;;;;;;;9.85;2.80;;;18.90;64.00;;;;;;4955581;28;20037;-67
2022/07/24 05:19:24;;;;;;;5.53;2.38;;;19.00;65.20;;;;;;4963536;28;20085;-67
2022/07/24 05:21:50;;;;;;;4.53;2.30;;;19.00;64.20;;;;;;4962030;28;20027;-67
2022/07/24 05:24:16;;;;;;;4.38;2.45;;;19.00;64.20;;;;;;4968199;28;20035;-67
2022/07/24 05:26:41;;;;;;;4.55;2.50;;;19.00;64.30;;;;;;4970238;28;20577;-67
2022/07/24 05:29:07;;;;;;;5.35;2.58;;;19.10;64.40;;;;;;4958749;28;20391;-67
2022/07/24 05:31:33;;;;;;;5.13;2.70;;;19.10;64.70;;;;;;4957318;28;20107;-67
2022/07/24 05:34:01;;;;;;;6.53;2.80;;;19.20;64.90;;;;;;4966254;28;20379;-67
2022/07/24 05:36:28;;;;;;;4.68;3.00;;;19.20;65.30;;;;;;4964540;28;20050;-67
2022/07/24 05:38:54;;;;;;;5.47;3.13;;;19.20;65.30;;;;;;4959727;28;20031;-67
2022/07/24 05:41:20;;;;;;;6.05;3.55;;;19.30;65.90;;;;;;4962578;28;20121;-67
2022/07/24 05:43:46;;;;;;;5.82;3.90;;;19.40;66.00;;;;;;4958534;28;20031;-67
2022/07/24 05:46:12;;;;;;;5.78;3.75;;;19.50;66.80;;;;;;4959741;28;20031;-67
2022/07/24 05:48:37;;;;;;;6.07;3.83;;;19.60;67.90;;;;;;4962533;28;20027;-67
2022/07/24 05:51:03;;;;;;;7.40;4.05;;;19.70;67.80;;;;;;4969705;28;20026;-67
2022/07/24 05:53:29;;;;;;;8.57;4.30;;;19.70;67.80;;;;;;4969896;28;20413;-67
2022/07/24 05:55:55;;;;;;;7.53;3.90;;;19.80;67.70;;;;;;4969227;28;20702;-67
2022/07/24 05:58:20;;;;;;;7.72;3.97;;;19.90;67.50;;;;;;4962656;28;20026;-67
2022/07/24 06:00:46;;;;;;;5.68;3.90;;;20.00;67.40;;;;;;4962465;28;20046;-67
2022/07/24 06:03:12;;;;;;;8.38;3.65;;;20.10;67.00;;;;;;4959810;28;20027;-67
2022/07/24 06:05:38;;;;;;;8.13;4.57;;;20.30;66.60;;;;;;4967753;28;20043;-67
2022/07/24 06:08:05;;;;;;;7.13;3.70;;;20.40;66.50;;;;;;4968958;28;20027;-67
2022/07/24 06:10:31;;;;;;;6.13;3.78;;;20.60;66.20;;;;;;4959075;28;20090;-67
2022/07/24 06:12:57;;;;;;;10.05;4.00;;;20.70;65.60;;;;;;4964813;28;20027;-67
2022/07/24 06:15:23;;;;;;;10.23;3.80;;;20.90;65.00;;;;;;4964833;28;20391;-67
2022/07/24 06:17:49;;;;;;;7.20;3.83;;;21.10;64.50;;;;;;4964264;28;20524;-67
2022/07/24 06:20:16;;;;;;;5.53;3.58;;;21.30;63.90;;;;;;4964716;28;20037;-67
2022/07/24 06:22:43;;;;;;;5.15;3.80;;;21.50;63.30;;;;;;4962683;28;20058;-67
2022/07/24 06:25:10;;;;;;;5.75;3.85;;;21.70;62.60;;;;;;4967509;28;20035;-68
2022/07/24 06:27:42;;;;;;;6.25;3.58;;;21.90;61.80;;;;;;4963278;28;20034;-68
2022/07/24 06:30:22;;;;;;;5.97;3.65;;;22.20;61.00;;;;;;4966045;28;20031;-68
2022/07/24 06:32:49;;;;;;;5.13;3.15;;;22.40;60.20;;;;;;4964308;28;20030;-68
2022/07/24 06:35:15;;;;;;;5.88;3.58;;;22.60;59.40;;;;;;4964802;28;20037;-68
2022/07/24 06:37:41;;;;;;;5.10;2.97;;;22.90;58.60;;;;;;4955543;28;20050;-68
2022/07/24 06:40:07;;;;;;;5.50;3.00;;;23.20;57.80;;;;;;4961205;28;20495;-68
2022/07/24 06:42:33;;;;;;;6.18;2.70;;;23.40;56.80;;;;;;4968321;28;20031;-68
2022/07/24 06:44:59;;;;;;;5.38;2.90;;;23.80;55.30;;;;;;4969098;28;20526;-68
2022/07/24 06:47:26;;;;;;;6.32;2.92;;;24.20;53.60;;;;;;4968530;28;20426;-68
2022/07/24 06:49:52;;;;;;;4.50;2.83;;;25.00;51.10;;;;;;4969608;28;20035;-69
2022/07/24 06:52:18;;;;;;;17.58;3.25;;;25.80;48.50;;;;;;4960545;28;20211;-68
2022/07/24 06:54:44;;;;;;;8.25;2.80;;;26.70;45.90;;;;;;4967426;28;20042;-68
2022/07/24 06:57:10;;;;;;;5.97;2.90;;;27.70;42.90;;;;;;4967509;28;20616;-68
2022/07/24 06:59:35;;;;;;;4.40;2.70;;;28.60;40.40;;;;;;4966078;28;20507;-68
2022/07/24 07:02:01;;;;;;;4.35;2.75;;;29.30;38.60;;;;;;4953362;28;21674;-68
2022/07/24 07:04:27;;;;;;;4.93;2.78;;;29.90;37.30;;;;;;4964346;28;20034;-68
2022/07/24 07:06:52;;;;;;;5.93;2.75;;;30.40;36.30;;;;;;4959915;28;20039;-68
2022/07/24 07:09:18;;;;;;;5.70;2.60;;;30.80;35.30;;;;;;4957813;28;20039;-68
2022/07/24 07:11:44;;;;;;;4.03;2.58;;;31.20;34.30;;;;;;4957642;28;20581;-68
2022/07/24 07:14:10;;;;;;;5.10;2.08;;;31.60;33.70;;;;;;4957422;28;20057;-69
2022/07/24 07:16:35;;;;;;;5.10;2.40;;;31.90;33.00;;;;;;4955149;28;20035;-69
2022/07/24 07:19:01;;;;;;;4.25;2.00;;;32.30;32.10;;;;;;4960103;28;20380;-68
2022/07/24 07:21:27;;;;;;;4.68;1.90;;;32.80;31.40;;;;;;4967777;28;20133;-68
2022/07/24 07:23:53;;;;;;;3.53;1.90;;;33.10;30.00;;;;;;4966885;28;20029;-69
2022/07/24 07:26:18;;;;;;;3.28;1.60;;;33.40;29.60;;;;;;4960481;28;20039;-70
2022/07/24 07:28:44;;;;;;;4.63;1.55;;;33.70;29.00;;;;;;4968866;28;20137;-70
2022/07/24 07:31:10;;;;;;;5.05;1.60;;;34.00;28.60;;;;;;4968683;28;20026;-70
2022/07/24 07:33:36;;;;;;;3.88;1.40;;;34.30;28.30;;;;;;4968636;28;20035;-70
2022/07/24 07:36:02;;;;;;;4.07;1.40;;;34.50;27.50;;;;;;4966488;28;20050;-68
2022/07/24 07:38:28;;;;;;;3.28;1.38;;;34.70;27.10;;;;;;4956821;28;20113;-68
2022/07/24 07:40:53;;;;;;;3.60;1.20;;;34.60;26.90;;;;;;4959356;28;20126;-69
2022/07/24 07:43:19;;;;;;;4.47;1.38;;;34.20;27.40;;;;;;4964160;28;20027;-68
2022/07/24 07:45:45;;;;;;;2.63;1.30;;;33.70;27.80;;;;;;4964056;28;20045;-68
2022/07/24 07:48:10;;;;;;;3.58;1.40;;;33.30;28.30;;;;;;4966070;28;20078;-68
2022/07/24 07:50:36;;;;;;;6.13;1.33;;;32.80;29.10;;;;;;4960668;28;20026;-69
2022/07/24 07:53:02;;;;;;;5.45;1.30;;;32.00;30.40;;;;;;4986983;28;20501;-69
2022/07/24 07:55:27;;;;;;;5.55;1.50;;;31.40;31.80;;;;;;4960265;28;20078;-69
2022/07/24 07:57:53;;;;;;;5.43;1.40;;;31.10;32.80;;;;;;4968030;28;20095;-68
2022/07/24 08:00:19;;;;;;;3.83;1.50;;;30.80;32.80;;;;;;4967405;28;20043;-68
2022/07/24 08:02:45;;;;;;;3.13;1.50;;;30.50;33.80;;;;;;4963924;28;20034;-68
2022/07/24 08:05:11;;;;;;;5.72;1.45;;;30.20;34.60;;;;;;4972350;28;20030;-68
2022/07/24 08:07:37;;;;;;;3.72;1.35;;;29.90;35.20;;;;;;4960555;28;20506;-68
2022/07/24 08:10:05;;;;;;;3.17;1.25;;;29.80;35.10;;;;;;4971665;28;20442;-68
2022/07/24 08:12:31;;;;;;;3.85;1.35;;;29.70;34.80;;;;;;4965733;28;20581;-68
2022/07/24 08:14:57;;;;;;;2.50;1.10;;;29.50;35.60;;;;;;4964765;28;20039;-69
2022/07/24 08:17:22;;;;;;;3.35;1.50;;;29.30;35.70;;;;;;4970623;28;20069;-68
2022/07/24 08:19:48;;;;;;;3.92;1.20;;;29.30;34.90;;;;;;4959343;28;20087;-70
2022/07/24 08:22:14;;;;;;;5.32;1.33;;;29.20;34.40;;;;;;4964773;28;20030;-68
2022/07/24 08:24:40;;;;;;;3.20;1.30;;;29.10;34.70;;;;;;4970420;28;20038;-67
2022/07/24 08:27:06;;;;;;;3.22;1.30;;;29.00;34.70;;;;;;4970738;28;20465;-68
2022/07/24 08:29:32;;;;;;;3.20;1.38;;;29.00;35.30;;;;;;4969191;28;20029;-68
2022/07/24 08:31:57;;;;;;;4.63;1.35;;;29.20;35.20;;;;;;4968495;28;20030;-68
2022/07/24 08:34:23;;;;;;;4.05;1.20;;;29.40;35.00;;;;;;4971086;28;20034;-68
2022/07/24 08:36:49;;;;;;;3.13;1.15;;;29.60;34.40;;;;;;4969921;28;20046;-68
2022/07/24 08:39:15;;;;;;;2.88;1.23;;;29.80;32.40;;;;;;4969806;28;20031;-68
2022/07/24 19:55:15;;;;;;;10.77;4.28;;;28.10;34.70;;;;;;5046068;28;20498;-69
2022/07/24 19:57:41;;;;;;;13.63;6.22;;;28.00;35.40;;;;;;5045602;28;20025;-70
2022/07/24 20:00:07;;;;;;;12.15;5.63;;;28.00;35.70;;;;;;5046418;28;20385;-70
2022/07/24 20:02:33;;;;;;;9.23;4.20;;;28.10;35.70;;;;;;5045658;28;20484;-71
2022/07/24 20:04:59;;;;;;;8.85;4.00;;;;;;;;;;5040919;28;20041;-70
2022/07/24 20:07:25;;;;;;;10.23;4.00;;;28.10;35.00;;;;;;5043806;28;20030;-71
2022/07/24 20:09:51;;;;;;;8.63;3.97;;;28.10;35.90;;;;;;5040002;28;20029;-71
2022/07/24 20:12:18;;;;;;;8.52;4.13;;;28.10;36.00;;;;;;5045417;28;20032;-68
2022/07/24 20:14:43;;;;;;;9.80;3.90;;;28.10;36.10;;;;;;5047347;28;20092;-68
2022/07/24 20:17:09;;;;;;;7.32;3.55;;;28.10;36.20;;;;;;5046043;28;20100;-68
2022/07/24 20:19:35;;;;;;;6.47;3.67;;;28.10;36.30;;;;;;5044967;28;20108;-68
2022/07/24 20:22:00;;;;;;;7.28;4.00;;;28.10;36.40;;;;;;5034476;28;20163;-68
2022/07/24 20:24:26;;;;;;;9.70;3.97;;;28.00;36.50;;;;;;5042490;28;20115;-68
2022/07/24 20:26:52;;;;;;;9.18;4.20;;;28.00;36.70;;;;;;5046115;28;20054;-69
2022/07/24 20:29:17;;;;;;;9.55;4.10;;;28.00;36.90;;;;;;5047412;28;20116;-68
2022/07/24 20:31:43;;;;;;;9.30;3.63;;;27.90;36.90;;;;;;5045028;28;20033;-68
2022/07/24 20:34:09;;;;;;;14.00;4.20;;;27.90;37.10;;;;;;5038020;28;20037;-68
2022/07/24 20:36:35;;;;;;;9.48;4.30;;;27.90;37.30;;;;;;5036831;28;20048;-68
2022/07/24 20:39:01;;;;;;;8.15;4.13;;;27.80;36.60;;;;;;5044767;28;20127;-68
2022/07/24 20:41:27;;;;;;;9.05;4.03;;;27.80;37.50;;;;;;5048047;28;20029;-70
2022/07/24 20:43:52;;;;;;;9.00;4.22;;;27.70;36.70;;;;;;5043785;28;20103;-71
2022/07/24 20:46:18;;;;;;;9.38;4.32;;;27.70;37.90;;;;;;5033493;28;20028;-71
2022/07/24 20:48:44;;;;;;;7.78;4.05;;;27.70;38.10;;;;;;5044371;28;20412;-71
2022/07/24 20:51:10;;;;;;;10.20;3.95;;;27.60;38.30;;;;;;5046364;28;20029;-71
2022/07/24 20:53:35;;;;;;;7.05;4.32;;;27.50;38.40;;;;;;5047618;28;20037;-70
2022/07/24 20:56:02;;;;;;;7.40;4.05;;;27.50;38.40;;;;;;5030455;28;20500;-71
2022/07/24 20:58:27;;;;;;;6.90;4.22;;;27.50;38.60;;;;;;5046272;28;20488;-71
2022/07/24 21:00:53;;;;;;;8.45;4.05;;;27.50;38.50;;;;;;5041422;28;20048;-71
2022/07/24 21:03:19;;;;;;;7.03;3.97;;;27.50;38.70;;;;;;5043270;28;20156;-71
2022/07/24 21:05:44;;;;;;;9.07;4.10;;;27.50;38.80;;;;;;5039205;28;20400;-71
2022/07/24 21:08:10;;;;;;;6.72;4.22;;;27.40;38.70;;;;;;5022161;28;20148;-71
2022/07/24 21:10:36;;;;;;;7.80;4.20;;;27.40;38.00;;;;;;5029045;28;20037;-70
2022/07/24 21:13:02;;;;;;;7.65;3.97;;;27.40;38.30;;;;;;5026904;28;20502;-71
2022/07/24 21:15:27;;;;;;;7.30;3.72;;;27.30;38.80;;;;;;5028993;28;20452;-71
2022/07/24 21:17:53;;;;;;;7.18;3.65;;;27.30;38.90;;;;;;5033025;28;20768;-71
2022/07/24 21:20:19;;;;;;;8.05;4.55;;;27.20;38.10;;;;;;5033182;28;20026;-71
2022/07/24 21:22:44;;;;;;;8.70;4.07;;;27.20;38.30;;;;;;5028614;28;20038;-71
2022/07/24 21:25:10;;;;;;;8.68;4.00;;;27.20;39.20;;;;;;5027274;28;20037;-71
2022/07/24 21:27:36;;;;;;;11.77;4.00;;;27.10;39.30;;;;;;5032188;28;20483;-71
2022/07/24 21:30:03;;;;;;;9.13;4.05;;;25.70;38.00;;;;;;5031433;28;20026;-71
2022/07/24 21:32:29;;;;;;;9.02;4.30;;;;;;;;;;5025468;28;20061;-71
2022/07/24 21:34:55;;;;;;;12.60;4.88;;;;;;;;;;5020397;28;20033;-71
2022/07/24 21:37:21;;;;;;;7.45;3.95;;;;;;;;;;5029658;28;20527;-70
2022/07/24 21:39:47;;;;;;;8.27;3.83;;;26.90;39.60;;;;;;5032169;28;20033;-71
2022/07/24 21:42:13;;;;;;;6.15;3.80;;;26.80;39.80;;;;;;5031409;28;20030;-70
2022/07/24 21:44:38;;;;;;;8.32;3.95;;;26.70;39.90;;;;;;5033317;28;20394;-70
2022/07/24 21:47:04;;;;;;;7.82;4.05;;;26.70;40.60;;;;;;5030617;28;20052;-71
2022/07/24 21:49:32;;;;;;;8.90;4.13;;;26.60;40.10;;;;;;5027640;28;20026;-71
2022/07/24 21:51:58;;;;;;;6.28;4.00;;;26.40;40.50;;;;;;5024853;28;20057;-71
2022/07/24 21:54:24;;;;;;;7.85;4.00;;;26.40;41.40;;;;;;5026957;28;20525;-71
2022/07/24 21:56:49;;;;;;;6.38;4.20;;;26.40;42.60;;;;;;5031465;28;20021;-71
2022/07/24 21:59:15;;;;;;;8.65;4.60;;;26.30;42.00;;;;;;5021839;28;20021;-71
2022/07/24 22:01:41;;;;;;;7.15;4.10;;;;;;;;;;5029562;28;20048;-71
2022/07/24 22:04:07;;;;;;;7.47;4.00;;;25.50;41.70;;;;;;5027523;28;20033;-71
2022/07/24 22:06:33;;;;;;;9.80;4.20;;;25.80;41.90;;;;;;5021933;28;20041;-71
2022/07/24 22:08:59;;;;;;;8.13;4.00;;;;;;;;;;5023254;28;20092;-71
2022/07/24 22:11:25;;;;;;;7.40;3.80;;;;;;;;;;5035524;28;20448;-71
2022/07/24 22:13:51;;;;;;;9.52;3.95;;;26.00;42.50;;;;;;5028906;28;20041;-71
2022/07/24 22:16:17;;;;;;;8.43;4.00;;;24.40;41.50;;;;;;5013607;28;20493;-70
2022/07/24 22:18:42;;;;;;;10.38;3.92;;;25.80;42.70;;;;;;5021784;28;20112;-70
2022/07/24 22:21:08;;;;;;;8.02;4.40;;;;;;;;;;5029841;28;20048;-69
2022/07/24 22:23:34;;;;;;;7.82;3.80;;;25.90;43.20;;;;;;5026249;28;20092;-69
2022/07/24 22:26:00;;;;;;;8.80;4.43;;;25.60;43.00;;;;;;5030907;28;20025;-69
2022/07/24 22:28:26;;;;;;;6.88;4.20;;;25.60;43.20;;;;;;5030391;28;20087;-69
2022/07/24 22:30:51;;;;;;;7.72;3.92;;;25.10;42.70;;;;;;5026620;28;20603;-69
2022/07/24 22:33:18;;;;;;;9.13;4.10;;;;;;;;;;5028984;28;20117;-70
2022/07/24 22:35:44;;;;;;;8.73;3.90;;;;;;;;;;5032975;28;20087;-69
2022/07/24 22:38:11;;;;;;;5.60;3.60;;;25.20;43.00;;;;;;5026672;28;20028;-69
2022/07/24 22:40:37;;;;;;;8.13;4.18;;;26.10;44.20;;;;;;5018687;28;20036;-69
2022/07/24 22:43:03;;;;;;;8.55;4.40;;;25.60;44.50;;;;;;5021768;28;20022;-69
2022/07/24 22:45:29;;;;;;;7.88;4.07;;;25.80;44.90;;;;;;5017856;28;20026;-70
2022/07/24 22:47:57;;;;;;;7.40;3.88;;;25.30;44.80;;;;;;5030985;28;20025;-70
2022/07/24 22:50:23;;;;;;;7.80;3.67;;;23.80;44.00;;;;;;5026498;28;20030;-70
2022/07/24 22:52:49;;;;;;;6.78;4.10;;;23.80;44.10;;;;;;5028979;28;20116;-69
2022/07/24 22:55:15;;;;;;;7.70;4.10;;;25.00;44.90;;;;;;5032141;28;20124;-69
2022/07/24 22:57:44;;;;;;;8.35;3.90;;;24.50;44.90;;;;;;5031050;28;20025;-69
2022/07/24 23:00:11;;;;;;;7.35;3.90;;;24.80;45.40;;;;;;5032118;28;20032;-69
2022/07/24 23:02:36;;;;;;;6.63;3.85;;;24.80;45.80;;;;;;5032704;28;20565;-69
2022/07/24 23:05:02;;;;;;;8.25;3.88;;;24.60;45.70;;;;;;5023631;28;20108;-69
2022/07/24 23:07:30;;;;;;;8.43;3.75;;;24.50;45.70;;;;;;5016624;28;20045;-69
2022/07/24 23:09:56;;;;;;;7.50;3.97;;;24.40;45.80;;;;;;5025996;28;20033;-69
2022/07/24 23:12:22;;;;;;;6.80;3.90;;;24.30;45.80;;;;;;5027147;28;20624;-69
2022/07/24 23:14:48;;;;;;;7.40;3.65;;;24.00;45.90;;;;;;5025782;28;20042;-69
2022/07/24 23:17:13;;;;;;;10.68;3.80;;;24.90;46.40;;;;;;5014817;28;20443;-69
2022/07/24 23:19:40;;;;;;;6.82;3.10;;;;;;;;;;5024244;28;20083;-70
2022/07/24 23:22:05;;;;;;;4.97;2.42;;;24.50;46.50;;;;;;5021309;28;20053;-69
2022/07/24 23:24:31;;;;;;;5.18;2.40;;;;;;;;;;5028750;28;20103;-69
2022/07/24 23:26:57;;;;;;;5.72;2.10;;;23.40;45.70;;;;;;5030979;28;20036;-69
2022/07/24 23:29:23;;;;;;;5.70;2.20;;;;;;;;;;5030517;28;20029;-69
2022/07/24 23:31:49;;;;;;;4.47;1.90;;;;;;;;;;5027011;28;20401;-69
2022/07/24 23:34:16;;;;;;;5.47;1.77;;;24.50;45.90;;;;;;5028444;28;20547;-69
2022/07/24 23:36:42;;;;;;;4.32;1.70;;;24.40;45.90;;;;;;5030883;28;20508;-69
2022/07/24 23:39:08;;;;;;;6.75;1.83;;;24.90;46.20;;;;;;5031222;28;20079;-70
2022/07/24 23:41:34;;;;;;;4.03;1.80;;;24.10;45.70;;;;;;5030893;28;20053;-70
2022/07/24 23:44:00;;;;;;;4.55;1.80;;;24.10;45.80;;;;;;5022925;28;20029;-69
2022/07/24 23:46:25;;;;;;;5.30;1.50;;;24.00;45.80;;;;;;5024939;28;20032;-69
2022/07/24 23:48:51;;;;;;;5.25;1.90;;;24.00;45.80;;;;;;5022505;28;20061;-70
2022/07/24 23:51:17;;;;;;;4.93;1.50;;;23.90;45.70;;;;;;5027145;28;20516;-69
2022/07/24 23:53:43;;;;;;;4.22;1.40;;;24.10;45.90;;;;;;5028291;28;20073;-69
2022/07/24 23:56:09;;;;;;;4.32;1.50;;;24.50;46.20;;;;;;5030932;28;20079;-69